Main page
METAR-TAF:

METAR-TAF

Airports :

Oil platform

Ekofisk, Norway

latitude: 56-33N, longitude: 003-15E, elevation: 3 m

Current weather observation

The report was made 30 minutes ago, at 09:20 UTC
Wind 21 kt from the East/Southeast
Temperature 10°C
Humidity 87%
Pressure 1035 hPa
Visibility 10 km or more
Few clouds at a height of 1200 ft

METAR: ENLE 170920Z 11021KT 9999 FEW012 10/08 Q1035 W10/S3

Time: 10:50 (09:50 UTC)

Forecast

The report was made 1 hour and 50 minutes ago, at 08:00 UTC
Forecast valid from 17 at 09 UTC to 17 at 18 UTC
Wind 18 kt from the East/Southeast
Visibility 10 km or more
Few clouds at a height of 1200 ft
Temporary
from 17 at 09 UTC to 17 at 12 UTC
Broken clouds at a height of 1200 ft

TAF: ENLE 170800Z 1709/1718 11018KT 9999 FEW012 TEMPO 1709/1712 BKN012

Weather observations and forecasts of more than 4000 airports (METAR and TAF reports).

The available stations are represented by yellow and red dots on the map.

Hover mouse over dot to see the name of the station.

Then click to see weather observations and forecasts.

To change the map : click on the green buttons with a black cross to zoom in, on the green button with a dash to zoom out, or on the green arrows for adjacent maps.


METAR-TAF: